MSC601 HECA-EDDK
Flight info
| Callsign | MSC601 |
|---|---|
| Flight time | 4h 22m |
| Altitude | 36000 |
| Route | CVO L617 TANSA UL613 KOR DCT TUMBO DCT RODON DCT VAKSU DCT MONFA/N0439F380 DCT BAKOR DCT SOTOV DCT KPT/N0422F340 L608 KOVAN T844 ASKIK T840 GULKO GULKO1C |
| Aircraft | A320/M-SDE3FGHIRWY/LB1 |
Departure
| Time | 2026-05-06 14:03 |
|---|---|
| Airport | Cairo International Airport (HECA) |
Arrival
| Time | 2026-05-06 18:25 |
|---|---|
| Airport | Cologne Bonn Airport (EDDK) |
| Time | Latitude | Longitude | Altitude | Speed | Heading |
|---|---|---|---|---|---|
| 2026-05-06 13:34 | 30.10769 | 31.39192 | 369 ft | 0 kts | 75° |
| 2026-05-06 13:39 | 30.10769 | 31.39191 | 369 ft | 0 kts | 75° |
| 2026-05-06 13:54 | 30.10768 | 31.39188 | 374 ft | 3 kts | 75° |
| 2026-05-06 13:55 | 30.10762 | 31.39158 | 374 ft | 4 kts | 78° |
| 2026-05-06 13:55 | 30.10758 | 31.39128 | 374 ft | 4 kts | 85° |
| 2026-05-06 13:55 | 30.10758 | 31.39097 | 374 ft | 4 kts | 105° |
| 2026-05-06 13:55 | 30.10768 | 31.39076 | 374 ft | 2 kts | 165° |
| 2026-05-06 13:56 | 30.10773 | 31.39074 | 374 ft | 1 kts | 165° |
| 2026-05-06 13:57 | 30.10745 | 31.39083 | 374 ft | 8 kts | 165° |
| 2026-05-06 13:58 | 30.10665 | 31.39107 | 374 ft | 15 kts | 165° |
| 2026-05-06 13:58 | 30.10568 | 31.39136 | 374 ft | 13 kts | 165° |
| 2026-05-06 13:58 | 30.10480 | 31.39163 | 374 ft | 14 kts | 165° |
| 2026-05-06 13:58 | 30.10446 | 31.39247 | 374 ft | 14 kts | 78° |
| 2026-05-06 13:59 | 30.10473 | 31.39366 | 374 ft | 16 kts | 75° |
| 2026-05-06 13:59 | 30.10503 | 31.39497 | 374 ft | 17 kts | 75° |
| 2026-05-06 13:59 | 30.10535 | 31.39635 | 374 ft | 18 kts | 75° |
| 2026-05-06 13:59 | 30.10519 | 31.39757 | 374 ft | 16 kts | 154° |
| 2026-05-06 14:00 | 30.10405 | 31.39789 | 374 ft | 19 kts | 167° |
| 2026-05-06 14:00 | 30.10310 | 31.39730 | 374 ft | 16 kts | 229° |
| 2026-05-06 14:00 | 30.10242 | 31.39641 | 374 ft | 15 kts | 229° |
| 2026-05-06 14:00 | 30.10173 | 31.39569 | 374 ft | 12 kts | 191° |
| 2026-05-06 14:01 | 30.10102 | 31.39620 | 374 ft | 12 kts | 139° |
| 2026-05-06 14:01 | 30.10041 | 31.39680 | 374 ft | 11 kts | 139° |
| 2026-05-06 14:01 | 30.10002 | 31.39761 | 374 ft | 14 kts | 96° |
| 2026-05-06 14:01 | 30.10016 | 31.39888 | 371 ft | 18 kts | 61° |
| 2026-05-06 14:02 | 30.10106 | 31.40009 | 371 ft | 25 kts | 49° |
| 2026-05-06 14:02 | 30.10326 | 31.40299 | 375 ft | 79 kts | 49° |
| 2026-05-06 14:02 | 30.10822 | 31.40956 | 372 ft | 136 kts | 49° |
| 2026-05-06 14:02 | 30.11538 | 31.41913 | 393 ft | 177 kts | 48° |
| 2026-05-06 14:03 | 30.12328 | 31.42981 | 1007 ft | 173 kts | 46° |
| 2026-05-06 14:03 | 30.13336 | 31.43680 | 1606 ft | 172 kts | 6° |
| 2026-05-06 14:03 | 30.14495 | 31.43416 | 2194 ft | 182 kts | 328° |
| 2026-05-06 14:03 | 30.15433 | 31.42320 | 2459 ft | 206 kts | 308° |
| 2026-05-06 14:04 | 30.16306 | 31.40882 | 2767 ft | 230 kts | 306° |
| 2026-05-06 14:04 | 30.17234 | 31.39256 | 3180 ft | 252 kts | 304° |
| 2026-05-06 14:04 | 30.18208 | 31.37533 | 3935 ft | 258 kts | 305° |
| 2026-05-06 14:04 | 30.19197 | 31.35784 | 4768 ft | 262 kts | 305° |
| 2026-05-06 14:05 | 30.20204 | 31.34004 | 5603 ft | 266 kts | 305° |
| 2026-05-06 14:05 | 30.21222 | 31.32206 | 6344 ft | 268 kts | 305° |
| 2026-05-06 14:05 | 30.22249 | 31.30402 | 7157 ft | 270 kts | 304° |
| 2026-05-06 14:05 | 30.23300 | 31.28584 | 7951 ft | 273 kts | 305° |
| 2026-05-06 14:06 | 30.24371 | 31.26764 | 8731 ft | 276 kts | 304° |
| 2026-05-06 14:06 | 30.25487 | 31.24906 | 9501 ft | 280 kts | 304° |
| 2026-05-06 14:06 | 30.26619 | 31.23055 | 10196 ft | 285 kts | 305° |
| 2026-05-06 14:06 | 30.27403 | 31.21783 | 10332 ft | 301 kts | 305° |
| 2026-05-06 14:07 | 30.28666 | 31.19742 | 10541 ft | 322 kts | 305° |
| 2026-05-06 14:07 | 30.29994 | 31.17598 | 11052 ft | 331 kts | 305° |
| 2026-05-06 14:07 | 30.31345 | 31.15425 | 11722 ft | 335 kts | 305° |
| 2026-05-06 14:07 | 30.32861 | 31.13367 | 12396 ft | 339 kts | 315° |
| 2026-05-06 14:08 | 30.34589 | 31.11489 | 13088 ft | 342 kts | 315° |
| 2026-05-06 14:08 | 30.36334 | 31.09612 | 13773 ft | 344 kts | 315° |
| 2026-05-06 14:08 | 30.38097 | 31.07717 | 14364 ft | 347 kts | 315° |
| 2026-05-06 14:08 | 30.39872 | 31.05809 | 14952 ft | 350 kts | 315° |
| 2026-05-06 14:09 | 30.41662 | 31.03885 | 15535 ft | 352 kts | 315° |
| 2026-05-06 14:09 | 30.43463 | 31.01942 | 16129 ft | 355 kts | 315° |
| 2026-05-06 14:09 | 30.45281 | 30.99980 | 16685 ft | 358 kts | 315° |
| 2026-05-06 14:09 | 30.47114 | 30.98001 | 17264 ft | 361 kts | 315° |
| 2026-05-06 14:10 | 30.48954 | 30.96010 | 17845 ft | 364 kts | 314° |
| 2026-05-06 14:10 | 30.50807 | 30.93998 | 18400 ft | 367 kts | 314° |
| 2026-05-06 14:10 | 30.52679 | 30.91967 | 18887 ft | 369 kts | 314° |
| 2026-05-06 14:10 | 30.54549 | 30.89941 | 19402 ft | 371 kts | 314° |
| 2026-05-06 14:11 | 30.56455 | 30.87875 | 19916 ft | 374 kts | 314° |
| 2026-05-06 14:11 | 30.58358 | 30.85809 | 20427 ft | 376 kts | 314° |
| 2026-05-06 14:11 | 30.60270 | 30.83732 | 20930 ft | 378 kts | 314° |
| 2026-05-06 14:11 | 30.62193 | 30.81642 | 21437 ft | 380 kts | 314° |
| 2026-05-06 14:12 | 30.64131 | 30.79533 | 21941 ft | 382 kts | 314° |
| 2026-05-06 14:12 | 30.66077 | 30.77414 | 22433 ft | 385 kts | 314° |
| 2026-05-06 14:12 | 30.68035 | 30.75280 | 22912 ft | 387 kts | 314° |
| 2026-05-06 14:12 | 30.70006 | 30.73132 | 23391 ft | 389 kts | 314° |
| 2026-05-06 14:13 | 30.71984 | 30.70976 | 23823 ft | 391 kts | 314° |
| 2026-05-06 14:13 | 30.73977 | 30.68802 | 24220 ft | 393 kts | 314° |
| 2026-05-06 14:13 | 30.75972 | 30.66627 | 24597 ft | 395 kts | 314° |
| 2026-05-06 14:13 | 30.77972 | 30.64445 | 24975 ft | 396 kts | 313° |
| 2026-05-06 14:14 | 30.79980 | 30.62252 | 25339 ft | 397 kts | 313° |
| 2026-05-06 14:14 | 30.81997 | 30.60044 | 25695 ft | 399 kts | 313° |
| 2026-05-06 14:14 | 30.84023 | 30.57822 | 26043 ft | 401 kts | 313° |
| 2026-05-06 14:14 | 30.86052 | 30.55598 | 26388 ft | 402 kts | 313° |
| 2026-05-06 14:15 | 30.88094 | 30.53360 | 26732 ft | 404 kts | 313° |
| 2026-05-06 14:15 | 30.90145 | 30.51111 | 27049 ft | 405 kts | 313° |
| 2026-05-06 14:15 | 30.92201 | 30.48854 | 27396 ft | 407 kts | 313° |
| 2026-05-06 14:15 | 30.94261 | 30.46596 | 27725 ft | 409 kts | 313° |
| 2026-05-06 14:16 | 30.96337 | 30.44322 | 28044 ft | 410 kts | 313° |
| 2026-05-06 14:16 | 30.98418 | 30.42044 | 28362 ft | 412 kts | 314° |
| 2026-05-06 14:16 | 31.00508 | 30.39753 | 28667 ft | 413 kts | 313° |
| 2026-05-06 14:16 | 31.02605 | 30.37448 | 28948 ft | 415 kts | 313° |
| 2026-05-06 14:17 | 31.04708 | 30.35128 | 29233 ft | 417 kts | 313° |
| 2026-05-06 14:17 | 31.06800 | 30.32777 | 29519 ft | 417 kts | 310° |
| 2026-05-06 14:17 | 31.08588 | 30.30140 | 29787 ft | 415 kts | 300° |
| 2026-05-06 14:17 | 31.09951 | 30.27173 | 30035 ft | 415 kts | 291° |
| 2026-05-06 14:18 | 31.10895 | 30.23995 | 30258 ft | 415 kts | 287° |
| 2026-05-06 14:18 | 31.11769 | 30.20771 | 30470 ft | 417 kts | 287° |
| 2026-05-06 14:18 | 31.12648 | 30.17541 | 30682 ft | 417 kts | 287° |
| 2026-05-06 14:18 | 31.13524 | 30.14322 | 31001 ft | 416 kts | 287° |
| 2026-05-06 14:19 | 31.14410 | 30.11071 | 31321 ft | 414 kts | 287° |
| 2026-05-06 14:19 | 31.15270 | 30.07914 | 31634 ft | 413 kts | 287° |
| 2026-05-06 14:19 | 31.16150 | 30.04675 | 31938 ft | 412 kts | 287° |
| 2026-05-06 14:19 | 31.17014 | 30.01497 | 32241 ft | 411 kts | 287° |
| 2026-05-06 14:20 | 31.17876 | 29.98329 | 32542 ft | 409 kts | 287° |
| 2026-05-06 14:20 | 31.18934 | 29.95246 | 32832 ft | 409 kts | 296° |
| 2026-05-06 14:20 | 31.20419 | 29.92417 | 33123 ft | 410 kts | 304° |
| 2026-05-06 14:20 | 31.22110 | 29.89730 | 33413 ft | 409 kts | 304° |
| 2026-05-06 14:21 | 31.23795 | 29.87039 | 33708 ft | 408 kts | 303° |
| 2026-05-06 14:21 | 31.25462 | 29.84361 | 33998 ft | 407 kts | 303° |
| 2026-05-06 14:21 | 31.27125 | 29.81689 | 34260 ft | 406 kts | 303° |
| 2026-05-06 14:21 | 31.28780 | 29.79026 | 34493 ft | 406 kts | 303° |
| 2026-05-06 14:22 | 31.30441 | 29.76358 | 34709 ft | 405 kts | 303° |
| 2026-05-06 14:22 | 31.32099 | 29.73697 | 34915 ft | 405 kts | 303° |
| 2026-05-06 14:22 | 31.33757 | 29.71034 | 35108 ft | 405 kts | 303° |
| 2026-05-06 14:22 | 31.35413 | 29.68370 | 35302 ft | 404 kts | 303° |
| 2026-05-06 14:23 | 31.37063 | 29.65715 | 35485 ft | 404 kts | 303° |
| 2026-05-06 14:23 | 31.38714 | 29.63060 | 35663 ft | 404 kts | 303° |
| 2026-05-06 14:23 | 31.40372 | 29.60395 | 35843 ft | 404 kts | 303° |
| 2026-05-06 14:23 | 31.42022 | 29.57740 | 36024 ft | 403 kts | 303° |
| 2026-05-06 14:24 | 31.45313 | 29.52431 | 36116 ft | 401 kts | 303° |
| 2026-05-06 14:24 | 31.48584 | 29.47146 | 36119 ft | 401 kts | 303° |
| 2026-05-06 14:25 | 31.51856 | 29.41849 | 36118 ft | 401 kts | 303° |
| 2026-05-06 14:25 | 31.55121 | 29.36558 | 36114 ft | 401 kts | 303° |
| 2026-05-06 14:26 | 31.58392 | 29.31245 | 36115 ft | 401 kts | 303° |
| 2026-05-06 14:26 | 31.61653 | 29.25937 | 36120 ft | 401 kts | 303° |
| 2026-05-06 14:27 | 31.64916 | 29.20623 | 36117 ft | 401 kts | 303° |
| 2026-05-06 14:27 | 31.68186 | 29.15281 | 36112 ft | 401 kts | 303° |
| 2026-05-06 14:28 | 31.71436 | 29.09946 | 36113 ft | 401 kts | 303° |
| 2026-05-06 14:28 | 31.75245 | 29.05129 | 36118 ft | 406 kts | 317° |
| 2026-05-06 14:29 | 31.79633 | 29.00939 | 36115 ft | 407 kts | 317° |
| 2026-05-06 14:29 | 31.84015 | 28.96724 | 36115 ft | 407 kts | 317° |
| 2026-05-06 14:30 | 31.88397 | 28.92487 | 36120 ft | 408 kts | 317° |
| 2026-05-06 14:30 | 31.92769 | 28.88258 | 36120 ft | 408 kts | 317° |
| 2026-05-06 14:31 | 31.97165 | 28.84007 | 36118 ft | 408 kts | 317° |
| 2026-05-06 14:31 | 32.01551 | 28.79760 | 36124 ft | 408 kts | 317° |
| 2026-05-06 14:32 | 32.05937 | 28.75511 | 36124 ft | 409 kts | 317° |
| 2026-05-06 14:32 | 32.10331 | 28.71253 | 36126 ft | 409 kts | 317° |
| 2026-05-06 14:33 | 32.14713 | 28.66993 | 36126 ft | 409 kts | 317° |
| 2026-05-06 14:33 | 32.19098 | 28.62718 | 36126 ft | 409 kts | 317° |
| 2026-05-06 14:34 | 32.23485 | 28.58454 | 36124 ft | 409 kts | 317° |
| 2026-05-06 14:34 | 32.27874 | 28.54179 | 36124 ft | 409 kts | 317° |
| 2026-05-06 14:35 | 32.32254 | 28.49892 | 36120 ft | 409 kts | 317° |
| 2026-05-06 14:35 | 32.36639 | 28.45600 | 36120 ft | 409 kts | 317° |
| 2026-05-06 14:36 | 32.41048 | 28.41283 | 36119 ft | 409 kts | 317° |
| 2026-05-06 14:36 | 32.45428 | 28.36985 | 36122 ft | 409 kts | 317° |
| 2026-05-06 14:37 | 32.49807 | 28.32684 | 36120 ft | 409 kts | 317° |
| 2026-05-06 14:37 | 32.54196 | 28.28377 | 36117 ft | 409 kts | 317° |
| 2026-05-06 14:38 | 32.58574 | 28.24073 | 36115 ft | 409 kts | 317° |
| 2026-05-06 14:38 | 32.62957 | 28.19757 | 36115 ft | 409 kts | 317° |
| 2026-05-06 14:39 | 32.67333 | 28.15440 | 36113 ft | 409 kts | 317° |
| 2026-05-06 14:39 | 32.71702 | 28.11113 | 36109 ft | 409 kts | 317° |
| 2026-05-06 14:40 | 32.75336 | 28.07512 | 36110 ft | 409 kts | 317° |
| 2026-05-06 14:40 | 32.79738 | 28.03154 | 36111 ft | 409 kts | 317° |
| 2026-05-06 14:41 | 32.84109 | 27.98809 | 36113 ft | 409 kts | 317° |
| 2026-05-06 14:41 | 32.88479 | 27.94463 | 36112 ft | 409 kts | 317° |
| 2026-05-06 14:42 | 32.92846 | 27.90125 | 36111 ft | 409 kts | 317° |
| 2026-05-06 14:42 | 32.97215 | 27.85777 | 36113 ft | 409 kts | 317° |
| 2026-05-06 14:43 | 33.01572 | 27.81427 | 36111 ft | 409 kts | 317° |
| 2026-05-06 14:43 | 33.05935 | 27.77064 | 36111 ft | 409 kts | 317° |
| 2026-05-06 14:44 | 33.10299 | 27.72710 | 36109 ft | 409 kts | 317° |
| 2026-05-06 14:45 | 33.16832 | 27.66158 | 36109 ft | 409 kts | 317° |
| 2026-05-06 14:45 | 33.21192 | 27.61787 | 36109 ft | 409 kts | 317° |
| 2026-05-06 14:46 | 33.25547 | 27.57411 | 36108 ft | 409 kts | 317° |
| 2026-05-06 14:46 | 33.29857 | 27.53077 | 36110 ft | 409 kts | 317° |
| 2026-05-06 14:47 | 33.34210 | 27.48696 | 36111 ft | 408 kts | 317° |
| 2026-05-06 14:47 | 33.38556 | 27.44319 | 36112 ft | 408 kts | 317° |
| 2026-05-06 14:48 | 33.42894 | 27.39937 | 36111 ft | 408 kts | 317° |
| 2026-05-06 14:48 | 33.47228 | 27.35549 | 36108 ft | 408 kts | 317° |
| 2026-05-06 14:49 | 33.51581 | 27.31130 | 36112 ft | 408 kts | 317° |
| 2026-05-06 14:49 | 33.55906 | 27.26736 | 36106 ft | 407 kts | 317° |
| 2026-05-06 14:50 | 33.60229 | 27.22347 | 36108 ft | 407 kts | 317° |
| 2026-05-06 14:50 | 33.64552 | 27.17957 | 36110 ft | 407 kts | 317° |
| 2026-05-06 14:51 | 33.68872 | 27.13554 | 36103 ft | 407 kts | 317° |
| 2026-05-06 14:51 | 33.73177 | 27.09152 | 36108 ft | 407 kts | 317° |
| 2026-05-06 14:52 | 33.77492 | 27.04751 | 36100 ft | 407 kts | 317° |
| 2026-05-06 14:52 | 33.81806 | 27.00355 | 36107 ft | 407 kts | 317° |
| 2026-05-06 14:53 | 33.86115 | 26.95945 | 36107 ft | 407 kts | 317° |
| 2026-05-06 14:53 | 33.90420 | 26.91526 | 36106 ft | 407 kts | 317° |
| 2026-05-06 14:54 | 33.94722 | 26.87106 | 36103 ft | 407 kts | 317° |
| 2026-05-06 14:54 | 33.99049 | 26.82651 | 36103 ft | 406 kts | 317° |
| 2026-05-06 14:55 | 34.03403 | 26.78359 | 36106 ft | 407 kts | 320° |
| 2026-05-06 14:55 | 34.07951 | 26.74205 | 36107 ft | 407 kts | 321° |
| 2026-05-06 14:56 | 34.12482 | 26.70100 | 36107 ft | 407 kts | 320° |
| 2026-05-06 14:56 | 34.16984 | 26.65945 | 36106 ft | 407 kts | 320° |
| 2026-05-06 14:57 | 34.21459 | 26.61759 | 36107 ft | 407 kts | 320° |
| 2026-05-06 14:57 | 34.25931 | 26.57566 | 36105 ft | 407 kts | 320° |
| 2026-05-06 14:58 | 34.30416 | 26.53380 | 36105 ft | 407 kts | 320° |
| 2026-05-06 14:58 | 34.34900 | 26.49194 | 36108 ft | 407 kts | 320° |
| 2026-05-06 14:59 | 34.39374 | 26.45000 | 36107 ft | 407 kts | 320° |
| 2026-05-06 14:59 | 34.43854 | 26.40800 | 36108 ft | 407 kts | 320° |
| 2026-05-06 15:00 | 34.48331 | 26.36594 | 36108 ft | 407 kts | 320° |
| 2026-05-06 15:00 | 34.52800 | 26.32383 | 36106 ft | 407 kts | 320° |
| 2026-05-06 15:01 | 34.57272 | 26.28171 | 36108 ft | 407 kts | 320° |
| 2026-05-06 15:01 | 34.61750 | 26.23950 | 36106 ft | 407 kts | 320° |
| 2026-05-06 15:02 | 34.66249 | 26.19698 | 36108 ft | 407 kts | 320° |
| 2026-05-06 15:02 | 34.70691 | 26.15503 | 36101 ft | 407 kts | 320° |
| 2026-05-06 15:03 | 34.75183 | 26.11253 | 36107 ft | 407 kts | 320° |
| 2026-05-06 15:03 | 34.79659 | 26.07009 | 36109 ft | 407 kts | 320° |
| 2026-05-06 15:04 | 34.84118 | 26.02775 | 36110 ft | 407 kts | 320° |
| 2026-05-06 15:04 | 34.88584 | 25.98532 | 36108 ft | 407 kts | 320° |
| 2026-05-06 15:05 | 34.93048 | 25.94278 | 36113 ft | 407 kts | 320° |
| 2026-05-06 15:05 | 34.97510 | 25.90027 | 36108 ft | 407 kts | 320° |
| 2026-05-06 15:06 | 35.01957 | 25.85773 | 36109 ft | 407 kts | 320° |
| 2026-05-06 15:06 | 35.06422 | 25.81498 | 36094 ft | 407 kts | 320° |
| 2026-05-06 15:07 | 35.10874 | 25.77223 | 36101 ft | 407 kts | 320° |
| 2026-05-06 15:07 | 35.15325 | 25.72940 | 36109 ft | 407 kts | 320° |
| 2026-05-06 15:08 | 35.19769 | 25.68647 | 36111 ft | 407 kts | 320° |
| 2026-05-06 15:08 | 35.24205 | 25.64358 | 36113 ft | 407 kts | 320° |
| 2026-05-06 15:09 | 35.28693 | 25.60044 | 36113 ft | 407 kts | 320° |
| 2026-05-06 15:09 | 35.33145 | 25.55758 | 36112 ft | 407 kts | 320° |
| 2026-05-06 15:10 | 35.37588 | 25.51460 | 36107 ft | 407 kts | 320° |
| 2026-05-06 15:10 | 35.42034 | 25.47158 | 36101 ft | 407 kts | 320° |
| 2026-05-06 15:11 | 35.46478 | 25.42862 | 36107 ft | 407 kts | 320° |
| 2026-05-06 15:11 | 35.50932 | 25.38546 | 36118 ft | 408 kts | 320° |
| 2026-05-06 15:12 | 35.55380 | 25.34214 | 36116 ft | 408 kts | 320° |
| 2026-05-06 15:12 | 35.59823 | 25.29884 | 36114 ft | 408 kts | 320° |
| 2026-05-06 15:13 | 35.64267 | 25.25561 | 36108 ft | 407 kts | 320° |
| 2026-05-06 15:13 | 35.67965 | 25.21963 | 36111 ft | 407 kts | 320° |
| 2026-05-06 15:14 | 35.72429 | 25.17602 | 36108 ft | 407 kts | 320° |
| 2026-05-06 15:14 | 35.76857 | 25.13269 | 36096 ft | 407 kts | 320° |
| 2026-05-06 15:15 | 35.81285 | 25.08926 | 36108 ft | 407 kts | 320° |
| 2026-05-06 15:15 | 35.85716 | 25.04580 | 36109 ft | 407 kts | 320° |
| 2026-05-06 15:16 | 35.90147 | 25.00231 | 36102 ft | 407 kts | 320° |
| 2026-05-06 15:16 | 35.94572 | 24.95876 | 36113 ft | 407 kts | 320° |
| 2026-05-06 15:17 | 35.98996 | 24.91510 | 36107 ft | 407 kts | 320° |
| 2026-05-06 15:17 | 36.03421 | 24.87140 | 36112 ft | 407 kts | 320° |
| 2026-05-06 15:18 | 36.07841 | 24.82767 | 36112 ft | 407 kts | 320° |
| 2026-05-06 15:18 | 36.12269 | 24.78383 | 36110 ft | 407 kts | 320° |
| 2026-05-06 15:19 | 36.16692 | 24.74003 | 36104 ft | 407 kts | 320° |
| 2026-05-06 15:19 | 36.21104 | 24.69623 | 36107 ft | 407 kts | 320° |
| 2026-05-06 15:20 | 36.25526 | 24.65225 | 36107 ft | 407 kts | 320° |
| 2026-05-06 15:20 | 36.29933 | 24.60825 | 36101 ft | 407 kts | 320° |
| 2026-05-06 15:21 | 36.34342 | 24.56421 | 36108 ft | 407 kts | 320° |
| 2026-05-06 15:21 | 36.38780 | 24.51991 | 36101 ft | 407 kts | 320° |
| 2026-05-06 15:22 | 36.43183 | 24.47587 | 36098 ft | 406 kts | 320° |
| 2026-05-06 15:22 | 36.47556 | 24.43204 | 36101 ft | 406 kts | 320° |
| 2026-05-06 15:23 | 36.51976 | 24.38766 | 36100 ft | 406 kts | 319° |
| 2026-05-06 15:23 | 36.56368 | 24.34345 | 36095 ft | 406 kts | 320° |
| 2026-05-06 15:24 | 36.60759 | 24.29922 | 36097 ft | 406 kts | 319° |
| 2026-05-06 15:24 | 36.65153 | 24.25490 | 36090 ft | 406 kts | 319° |
| 2026-05-06 15:25 | 36.69541 | 24.21063 | 36087 ft | 406 kts | 319° |
| 2026-05-06 15:25 | 36.73919 | 24.16623 | 36083 ft | 406 kts | 319° |
| 2026-05-06 15:26 | 36.78301 | 24.12183 | 36082 ft | 406 kts | 319° |
| 2026-05-06 15:26 | 36.82682 | 24.07746 | 36076 ft | 406 kts | 319° |
| 2026-05-06 15:27 | 36.87066 | 24.03291 | 36077 ft | 406 kts | 319° |
| 2026-05-06 15:27 | 36.91436 | 23.98839 | 36076 ft | 406 kts | 319° |
| 2026-05-06 15:28 | 36.95812 | 23.94379 | 36074 ft | 406 kts | 319° |
| 2026-05-06 15:28 | 37.00188 | 23.89920 | 36068 ft | 406 kts | 319° |
| 2026-05-06 15:29 | 37.04560 | 23.85451 | 36069 ft | 406 kts | 319° |
| 2026-05-06 15:29 | 37.08924 | 23.80991 | 36065 ft | 406 kts | 319° |
| 2026-05-06 15:30 | 37.13323 | 23.76498 | 36062 ft | 406 kts | 319° |
| 2026-05-06 15:30 | 37.17697 | 23.72017 | 36061 ft | 406 kts | 319° |
| 2026-05-06 15:31 | 37.22054 | 23.67534 | 36063 ft | 405 kts | 319° |
| 2026-05-06 15:31 | 37.26418 | 23.63040 | 36059 ft | 405 kts | 319° |
| 2026-05-06 15:32 | 37.32952 | 23.56300 | 36057 ft | 405 kts | 319° |
| 2026-05-06 15:32 | 37.37311 | 23.51801 | 36060 ft | 405 kts | 319° |
| 2026-05-06 15:33 | 37.41670 | 23.47291 | 36060 ft | 405 kts | 319° |
| 2026-05-06 15:33 | 37.46020 | 23.42791 | 36055 ft | 405 kts | 319° |
| 2026-05-06 15:34 | 37.50379 | 23.38264 | 36054 ft | 406 kts | 318° |
| 2026-05-06 15:34 | 37.54725 | 23.33735 | 36058 ft | 406 kts | 318° |
| 2026-05-06 15:35 | 37.59075 | 23.29199 | 36054 ft | 406 kts | 319° |
| 2026-05-06 15:35 | 37.63422 | 23.24667 | 36055 ft | 406 kts | 318° |
| 2026-05-06 15:36 | 37.67778 | 23.20118 | 36053 ft | 406 kts | 318° |
| 2026-05-06 15:36 | 37.72130 | 23.15572 | 36056 ft | 406 kts | 318° |
| 2026-05-06 15:37 | 37.76480 | 23.11016 | 36055 ft | 406 kts | 318° |
| 2026-05-06 15:37 | 37.80860 | 23.06421 | 36053 ft | 406 kts | 318° |
| 2026-05-06 15:38 | 37.85214 | 23.01842 | 36053 ft | 407 kts | 318° |
| 2026-05-06 15:38 | 37.89557 | 22.97257 | 36058 ft | 407 kts | 318° |
| 2026-05-06 15:39 | 37.93900 | 22.92677 | 36055 ft | 407 kts | 317° |
| 2026-05-06 15:39 | 37.98181 | 22.87992 | 36062 ft | 407 kts | 316° |
| 2026-05-06 15:40 | 38.02422 | 22.83228 | 36057 ft | 407 kts | 316° |
| 2026-05-06 15:40 | 38.06669 | 22.78486 | 36057 ft | 407 kts | 316° |
| 2026-05-06 15:41 | 38.10925 | 22.73761 | 36055 ft | 407 kts | 316° |
| 2026-05-06 15:41 | 38.15195 | 22.69008 | 36056 ft | 407 kts | 316° |
| 2026-05-06 15:42 | 38.19454 | 22.64257 | 36059 ft | 408 kts | 316° |
| 2026-05-06 15:42 | 38.23718 | 22.59497 | 36060 ft | 408 kts | 316° |
| 2026-05-06 15:43 | 38.27974 | 22.54733 | 36060 ft | 408 kts | 316° |
| 2026-05-06 15:43 | 38.32261 | 22.49928 | 36063 ft | 408 kts | 316° |
| 2026-05-06 15:44 | 38.36514 | 22.45150 | 36067 ft | 408 kts | 316° |
| 2026-05-06 15:44 | 38.40768 | 22.40359 | 36069 ft | 408 kts | 316° |
| 2026-05-06 15:45 | 38.45019 | 22.35569 | 36073 ft | 408 kts | 316° |
| 2026-05-06 15:45 | 38.48550 | 22.31582 | 36078 ft | 408 kts | 316° |
| 2026-05-06 15:46 | 38.52797 | 22.26774 | 36085 ft | 408 kts | 316° |
| 2026-05-06 15:46 | 38.57047 | 22.21977 | 36083 ft | 408 kts | 316° |
| 2026-05-06 15:47 | 38.61293 | 22.17168 | 36075 ft | 407 kts | 316° |
| 2026-05-06 15:47 | 38.65526 | 22.12361 | 36086 ft | 407 kts | 316° |
| 2026-05-06 15:48 | 38.69756 | 22.07548 | 36084 ft | 407 kts | 316° |
| 2026-05-06 15:48 | 38.73991 | 22.02719 | 36079 ft | 407 kts | 316° |
| 2026-05-06 15:49 | 38.78219 | 21.97887 | 36088 ft | 407 kts | 316° |
| 2026-05-06 15:49 | 38.82472 | 21.93033 | 36082 ft | 407 kts | 316° |
| 2026-05-06 15:50 | 38.86695 | 21.88202 | 36085 ft | 407 kts | 316° |
| 2026-05-06 15:50 | 38.90918 | 21.83352 | 36083 ft | 407 kts | 316° |
| 2026-05-06 15:51 | 38.95136 | 21.78512 | 36090 ft | 406 kts | 316° |
| 2026-05-06 15:51 | 38.99346 | 21.73671 | 36094 ft | 406 kts | 316° |
| 2026-05-06 15:52 | 39.03549 | 21.68825 | 36086 ft | 406 kts | 315° |
| 2026-05-06 15:52 | 39.07751 | 21.63977 | 36086 ft | 406 kts | 316° |
| 2026-05-06 15:53 | 39.11963 | 21.59113 | 36076 ft | 406 kts | 316° |
| 2026-05-06 15:53 | 39.16153 | 21.54244 | 36089 ft | 406 kts | 315° |
| 2026-05-06 15:54 | 39.20357 | 21.49359 | 36087 ft | 407 kts | 315° |
| 2026-05-06 15:54 | 39.24561 | 21.44478 | 36089 ft | 407 kts | 315° |
| 2026-05-06 15:55 | 39.28765 | 21.39587 | 36084 ft | 407 kts | 315° |
| 2026-05-06 15:55 | 39.32975 | 21.34675 | 36080 ft | 408 kts | 315° |
| 2026-05-06 15:56 | 39.37176 | 21.29765 | 36089 ft | 407 kts | 315° |
| 2026-05-06 15:56 | 39.41378 | 21.24838 | 36089 ft | 407 kts | 315° |
| 2026-05-06 15:57 | 39.45580 | 21.19915 | 36099 ft | 408 kts | 315° |
| 2026-05-06 15:57 | 39.49782 | 21.14983 | 36099 ft | 407 kts | 315° |
| 2026-05-06 15:58 | 39.54005 | 21.10024 | 36104 ft | 407 kts | 315° |
| 2026-05-06 15:58 | 39.58199 | 21.05078 | 36110 ft | 407 kts | 315° |
| 2026-05-06 15:59 | 39.62383 | 21.00138 | 36121 ft | 406 kts | 315° |
| 2026-05-06 15:59 | 39.66561 | 20.95196 | 36119 ft | 406 kts | 315° |
| 2026-05-06 16:00 | 39.70727 | 20.90257 | 36127 ft | 406 kts | 314° |
| 2026-05-06 16:00 | 39.74900 | 20.85309 | 36112 ft | 406 kts | 315° |
| 2026-05-06 16:01 | 39.79070 | 20.80359 | 36082 ft | 406 kts | 314° |
| 2026-05-06 16:01 | 39.83235 | 20.75394 | 36086 ft | 406 kts | 314° |
| 2026-05-06 16:02 | 39.87399 | 20.70437 | 36087 ft | 406 kts | 314° |
| 2026-05-06 16:02 | 39.91559 | 20.65474 | 36088 ft | 405 kts | 314° |
| 2026-05-06 16:03 | 39.95710 | 20.60500 | 36079 ft | 405 kts | 314° |
| 2026-05-06 16:03 | 39.99862 | 20.55522 | 36077 ft | 406 kts | 314° |
| 2026-05-06 16:04 | 40.04019 | 20.50532 | 36074 ft | 406 kts | 314° |
| 2026-05-06 16:04 | 40.08350 | 20.45716 | 36072 ft | 408 kts | 320° |
| 2026-05-06 16:05 | 40.12931 | 20.41312 | 36067 ft | 409 kts | 320° |
| 2026-05-06 16:05 | 40.17504 | 20.36910 | 36067 ft | 409 kts | 320° |
| 2026-05-06 16:06 | 40.22078 | 20.32495 | 36067 ft | 408 kts | 320° |
| 2026-05-06 16:06 | 40.26643 | 20.28074 | 36069 ft | 408 kts | 320° |
| 2026-05-06 16:07 | 40.31209 | 20.23642 | 36072 ft | 409 kts | 320° |
| 2026-05-06 16:07 | 40.35778 | 20.19213 | 36076 ft | 409 kts | 320° |
| 2026-05-06 16:08 | 40.40347 | 20.14782 | 36076 ft | 408 kts | 320° |
| 2026-05-06 16:08 | 40.44901 | 20.10337 | 36073 ft | 408 kts | 320° |
| 2026-05-06 16:09 | 40.49448 | 20.05893 | 36075 ft | 407 kts | 320° |
| 2026-05-06 16:09 | 40.53989 | 20.01457 | 36074 ft | 407 kts | 320° |
| 2026-05-06 16:10 | 40.58532 | 19.97022 | 36074 ft | 406 kts | 320° |
| 2026-05-06 16:10 | 40.63063 | 19.92585 | 36076 ft | 405 kts | 320° |
| 2026-05-06 16:11 | 40.67574 | 19.88138 | 36074 ft | 405 kts | 320° |
| 2026-05-06 16:11 | 40.72109 | 19.83661 | 36076 ft | 404 kts | 320° |
| 2026-05-06 16:12 | 40.76609 | 19.79230 | 36069 ft | 404 kts | 320° |
| 2026-05-06 16:12 | 40.81116 | 19.74791 | 36075 ft | 404 kts | 320° |
| 2026-05-06 16:13 | 40.85608 | 19.70343 | 36072 ft | 403 kts | 320° |
| 2026-05-06 16:13 | 40.90091 | 19.65904 | 36078 ft | 403 kts | 319° |
| 2026-05-06 16:14 | 40.94574 | 19.61448 | 36076 ft | 402 kts | 319° |
| 2026-05-06 16:14 | 40.99041 | 19.57001 | 36077 ft | 402 kts | 319° |
| 2026-05-06 16:15 | 41.03515 | 19.52551 | 36075 ft | 402 kts | 319° |
| 2026-05-06 16:15 | 41.07978 | 19.48103 | 36076 ft | 402 kts | 319° |
| 2026-05-06 16:16 | 41.12439 | 19.43646 | 36079 ft | 401 kts | 319° |
| 2026-05-06 16:16 | 41.16893 | 19.39177 | 36076 ft | 401 kts | 319° |
| 2026-05-06 16:17 | 41.21348 | 19.34701 | 36076 ft | 401 kts | 319° |
| 2026-05-06 16:17 | 41.25804 | 19.30225 | 36074 ft | 402 kts | 319° |
| 2026-05-06 16:18 | 41.29531 | 19.26472 | 36072 ft | 402 kts | 319° |
| 2026-05-06 16:18 | 41.33983 | 19.21980 | 36069 ft | 402 kts | 319° |
| 2026-05-06 16:19 | 41.38436 | 19.17486 | 36069 ft | 402 kts | 319° |
| 2026-05-06 16:19 | 41.42887 | 19.12987 | 36070 ft | 402 kts | 319° |
| 2026-05-06 16:20 | 41.47340 | 19.08465 | 36066 ft | 402 kts | 319° |
| 2026-05-06 16:20 | 41.51782 | 19.03936 | 36067 ft | 402 kts | 318° |
| 2026-05-06 16:21 | 41.56220 | 18.99395 | 36066 ft | 402 kts | 318° |
| 2026-05-06 16:21 | 41.60648 | 18.94852 | 36066 ft | 402 kts | 318° |
| 2026-05-06 16:22 | 41.65087 | 18.90293 | 36063 ft | 402 kts | 318° |
| 2026-05-06 16:22 | 41.69517 | 18.85738 | 36058 ft | 402 kts | 318° |
| 2026-05-06 16:23 | 41.73985 | 18.81144 | 36060 ft | 402 kts | 318° |
| 2026-05-06 16:23 | 41.78413 | 18.76577 | 36058 ft | 402 kts | 318° |
| 2026-05-06 16:24 | 41.82850 | 18.72000 | 36058 ft | 402 kts | 318° |
| 2026-05-06 16:24 | 41.87275 | 18.67415 | 36058 ft | 402 kts | 318° |
| 2026-05-06 16:25 | 41.91693 | 18.62819 | 36056 ft | 402 kts | 318° |
| 2026-05-06 16:25 | 41.96118 | 18.58214 | 36056 ft | 402 kts | 318° |
| 2026-05-06 16:26 | 42.00548 | 18.53598 | 36053 ft | 402 kts | 317° |
| 2026-05-06 16:26 | 42.04538 | 18.48410 | 36052 ft | 399 kts | 311° |
| 2026-05-06 16:27 | 42.08407 | 18.43055 | 36049 ft | 399 kts | 311° |
| 2026-05-06 16:27 | 42.12274 | 18.37687 | 36049 ft | 399 kts | 311° |
| 2026-05-06 16:28 | 42.15913 | 18.32620 | 36048 ft | 400 kts | 311° |
| 2026-05-06 16:28 | 42.19780 | 18.27239 | 36046 ft | 400 kts | 311° |
| 2026-05-06 16:29 | 42.23659 | 18.21849 | 36044 ft | 400 kts | 311° |
| 2026-05-06 16:29 | 42.27550 | 18.16412 | 36041 ft | 401 kts | 310° |
| 2026-05-06 16:30 | 42.30766 | 18.11908 | 36038 ft | 401 kts | 310° |
| 2026-05-06 16:30 | 42.35264 | 18.05605 | 36037 ft | 401 kts | 310° |
| 2026-05-06 16:31 | 42.39141 | 18.00170 | 36037 ft | 401 kts | 310° |
| 2026-05-06 16:31 | 42.43034 | 17.94697 | 36035 ft | 402 kts | 310° |
| 2026-05-06 16:32 | 42.46906 | 17.89243 | 36036 ft | 402 kts | 310° |
| 2026-05-06 16:32 | 42.50770 | 17.83779 | 36034 ft | 402 kts | 310° |
| 2026-05-06 16:33 | 42.54634 | 17.78305 | 36027 ft | 402 kts | 310° |
| 2026-05-06 16:34 | 42.60441 | 17.70073 | 36017 ft | 402 kts | 310° |
| 2026-05-06 16:34 | 42.64304 | 17.64585 | 36016 ft | 402 kts | 310° |
| 2026-05-06 16:35 | 42.68163 | 17.59079 | 36030 ft | 402 kts | 310° |
| 2026-05-06 16:35 | 42.72024 | 17.53565 | 36018 ft | 403 kts | 310° |
| 2026-05-06 16:36 | 42.75885 | 17.48046 | 36016 ft | 403 kts | 310° |
| 2026-05-06 16:36 | 42.79753 | 17.42529 | 36029 ft | 403 kts | 310° |
| 2026-05-06 16:37 | 42.83638 | 17.36958 | 36023 ft | 403 kts | 309° |
| 2026-05-06 16:37 | 42.87489 | 17.31414 | 36021 ft | 403 kts | 309° |
| 2026-05-06 16:38 | 42.91337 | 17.25861 | 36020 ft | 403 kts | 309° |
| 2026-05-06 16:38 | 42.95186 | 17.20297 | 36026 ft | 403 kts | 309° |
| 2026-05-06 16:39 | 42.99035 | 17.14742 | 36007 ft | 403 kts | 309° |
| 2026-05-06 16:39 | 43.02884 | 17.09165 | 36015 ft | 403 kts | 309° |
| 2026-05-06 16:40 | 43.06722 | 17.03587 | 36018 ft | 403 kts | 309° |
| 2026-05-06 16:40 | 43.10553 | 16.98008 | 36021 ft | 403 kts | 309° |
| 2026-05-06 16:41 | 43.14401 | 16.92398 | 36032 ft | 404 kts | 309° |
| 2026-05-06 16:41 | 43.18244 | 16.86781 | 36038 ft | 404 kts | 309° |
| 2026-05-06 16:42 | 43.22083 | 16.81164 | 36052 ft | 404 kts | 309° |
| 2026-05-06 16:42 | 43.25921 | 16.75543 | 36052 ft | 404 kts | 309° |
| 2026-05-06 16:43 | 43.29783 | 16.69868 | 36050 ft | 404 kts | 309° |
| 2026-05-06 16:43 | 43.33609 | 16.64239 | 36049 ft | 404 kts | 309° |
| 2026-05-06 16:44 | 43.37452 | 16.58574 | 36046 ft | 404 kts | 309° |
| 2026-05-06 16:44 | 43.41287 | 16.52903 | 36037 ft | 405 kts | 309° |
| 2026-05-06 16:45 | 43.45112 | 16.47225 | 36020 ft | 405 kts | 309° |
| 2026-05-06 16:45 | 43.48938 | 16.41541 | 36015 ft | 405 kts | 309° |
| 2026-05-06 16:46 | 43.52770 | 16.35845 | 36023 ft | 405 kts | 309° |
| 2026-05-06 16:46 | 43.56595 | 16.30139 | 36022 ft | 405 kts | 309° |
| 2026-05-06 16:47 | 43.60422 | 16.24418 | 36022 ft | 406 kts | 309° |
| 2026-05-06 16:47 | 43.64275 | 16.18656 | 36020 ft | 406 kts | 309° |
| 2026-05-06 16:48 | 43.68080 | 16.12964 | 36016 ft | 406 kts | 309° |
| 2026-05-06 16:48 | 43.71907 | 16.07223 | 36009 ft | 406 kts | 308° |
| 2026-05-06 16:49 | 43.75754 | 16.01422 | 36005 ft | 406 kts | 308° |
| 2026-05-06 16:49 | 43.79570 | 15.95663 | 35996 ft | 406 kts | 308° |
| 2026-05-06 16:50 | 43.83394 | 15.89887 | 35996 ft | 407 kts | 308° |
| 2026-05-06 16:50 | 43.86567 | 15.85087 | 35996 ft | 407 kts | 308° |
| 2026-05-06 16:51 | 43.90375 | 15.79290 | 36001 ft | 407 kts | 308° |
| 2026-05-06 16:51 | 43.94193 | 15.73487 | 36000 ft | 407 kts | 308° |
| 2026-05-06 16:52 | 43.98030 | 15.67656 | 35996 ft | 407 kts | 308° |
| 2026-05-06 16:52 | 44.01846 | 15.61843 | 35996 ft | 407 kts | 308° |
| 2026-05-06 16:53 | 44.05650 | 15.56024 | 36000 ft | 407 kts | 308° |
| 2026-05-06 16:53 | 44.09449 | 15.50190 | 36005 ft | 407 kts | 308° |
| 2026-05-06 16:54 | 44.13244 | 15.44343 | 36003 ft | 407 kts | 308° |
| 2026-05-06 16:54 | 44.17042 | 15.38502 | 35998 ft | 407 kts | 308° |
| 2026-05-06 16:55 | 44.20842 | 15.32659 | 35997 ft | 408 kts | 308° |
| 2026-05-06 16:55 | 44.24634 | 15.26802 | 35994 ft | 408 kts | 308° |
| 2026-05-06 16:56 | 44.28424 | 15.20925 | 35986 ft | 408 kts | 308° |
| 2026-05-06 16:56 | 44.32220 | 15.15030 | 35982 ft | 408 kts | 308° |
| 2026-05-06 16:57 | 44.36021 | 15.09127 | 35971 ft | 409 kts | 308° |
| 2026-05-06 16:57 | 44.39824 | 15.03208 | 35968 ft | 409 kts | 308° |
| 2026-05-06 16:58 | 44.43618 | 14.97269 | 35965 ft | 410 kts | 308° |
| 2026-05-06 16:58 | 44.47436 | 14.91280 | 35966 ft | 410 kts | 308° |
| 2026-05-06 16:59 | 44.51233 | 14.85327 | 35963 ft | 410 kts | 308° |
| 2026-05-06 16:59 | 44.55030 | 14.79366 | 35960 ft | 410 kts | 308° |
| 2026-05-06 17:00 | 44.58830 | 14.73376 | 35961 ft | 411 kts | 308° |
| 2026-05-06 17:00 | 44.62629 | 14.67371 | 35955 ft | 411 kts | 308° |
| 2026-05-06 17:01 | 44.66427 | 14.61367 | 35951 ft | 411 kts | 308° |
| 2026-05-06 17:01 | 44.70227 | 14.55352 | 35949 ft | 412 kts | 308° |
| 2026-05-06 17:02 | 44.74027 | 14.49330 | 35949 ft | 412 kts | 308° |
| 2026-05-06 17:02 | 44.77847 | 14.43248 | 35930 ft | 413 kts | 307° |
| 2026-05-06 17:03 | 44.81644 | 14.37172 | 35949 ft | 414 kts | 308° |
| 2026-05-06 17:03 | 44.85450 | 14.31070 | 35960 ft | 414 kts | 308° |
| 2026-05-06 17:04 | 44.89248 | 14.24992 | 35959 ft | 413 kts | 308° |
| 2026-05-06 17:04 | 44.93071 | 14.18866 | 35962 ft | 413 kts | 307° |
| 2026-05-06 17:05 | 44.96866 | 14.12759 | 35959 ft | 414 kts | 307° |
| 2026-05-06 17:05 | 45.00661 | 14.06640 | 35959 ft | 414 kts | 307° |
| 2026-05-06 17:06 | 45.04452 | 14.00503 | 35953 ft | 414 kts | 307° |
| 2026-05-06 17:06 | 45.08240 | 13.94359 | 35950 ft | 414 kts | 307° |
| 2026-05-06 17:07 | 45.12025 | 13.88214 | 35949 ft | 415 kts | 307° |
| 2026-05-06 17:07 | 45.15773 | 13.82125 | 35944 ft | 415 kts | 307° |
| 2026-05-06 17:08 | 45.19602 | 13.75885 | 35937 ft | 415 kts | 307° |
| 2026-05-06 17:08 | 45.23387 | 13.69686 | 35934 ft | 416 kts | 307° |
| 2026-05-06 17:09 | 45.27168 | 13.63481 | 35924 ft | 416 kts | 307° |
| 2026-05-06 17:09 | 45.30955 | 13.57260 | 35921 ft | 416 kts | 307° |
| 2026-05-06 17:10 | 45.34741 | 13.51035 | 35919 ft | 416 kts | 307° |
| 2026-05-06 17:10 | 45.38554 | 13.44760 | 35919 ft | 417 kts | 307° |
| 2026-05-06 17:11 | 45.42335 | 13.38500 | 35911 ft | 417 kts | 307° |
| 2026-05-06 17:11 | 45.46092 | 13.32270 | 35913 ft | 417 kts | 306° |
| 2026-05-06 17:12 | 45.50003 | 13.26138 | 35898 ft | 420 kts | 312° |
| 2026-05-06 17:12 | 45.54261 | 13.20440 | 35897 ft | 421 kts | 312° |
| 2026-05-06 17:13 | 45.58532 | 13.14721 | 35888 ft | 421 kts | 312° |
| 2026-05-06 17:13 | 45.62784 | 13.08993 | 35887 ft | 421 kts | 312° |
| 2026-05-06 17:14 | 45.67030 | 13.03233 | 35890 ft | 421 kts | 312° |
| 2026-05-06 17:14 | 45.71277 | 12.97458 | 35887 ft | 421 kts | 312° |
| 2026-05-06 17:15 | 45.75515 | 12.91692 | 35878 ft | 421 kts | 312° |
| 2026-05-06 17:15 | 45.79770 | 12.85915 | 35884 ft | 421 kts | 311° |
| 2026-05-06 17:16 | 45.84023 | 12.80120 | 35883 ft | 421 kts | 311° |
| 2026-05-06 17:16 | 45.88286 | 12.74273 | 35913 ft | 422 kts | 311° |
| 2026-05-06 17:17 | 45.92531 | 12.68462 | 35916 ft | 422 kts | 311° |
| 2026-05-06 17:17 | 45.96780 | 12.62630 | 35918 ft | 422 kts | 311° |
| 2026-05-06 17:18 | 46.01014 | 12.56798 | 35918 ft | 422 kts | 311° |
| 2026-05-06 17:18 | 46.05251 | 12.50935 | 35918 ft | 422 kts | 311° |
| 2026-05-06 17:19 | 46.09495 | 12.45080 | 35913 ft | 423 kts | 311° |
| 2026-05-06 17:19 | 46.13730 | 12.39206 | 35909 ft | 423 kts | 311° |
| 2026-05-06 17:20 | 46.17965 | 12.33305 | 35902 ft | 423 kts | 311° |
| 2026-05-06 17:20 | 46.22198 | 12.27394 | 35891 ft | 423 kts | 311° |
| 2026-05-06 17:21 | 46.26438 | 12.21472 | 35879 ft | 424 kts | 310° |
| 2026-05-06 17:21 | 46.29979 | 12.16514 | 35878 ft | 424 kts | 310° |
| 2026-05-06 17:22 | 46.34226 | 12.10557 | 35872 ft | 425 kts | 310° |
| 2026-05-06 17:22 | 46.38403 | 12.04693 | 35870 ft | 425 kts | 310° |
| 2026-05-06 17:23 | 46.42681 | 11.98676 | 35869 ft | 426 kts | 310° |
| 2026-05-06 17:23 | 46.46923 | 11.92685 | 35870 ft | 426 kts | 310° |
| 2026-05-06 17:24 | 46.51168 | 11.86667 | 35855 ft | 427 kts | 310° |
| 2026-05-06 17:24 | 46.55294 | 11.80812 | 35868 ft | 427 kts | 310° |
| 2026-05-06 17:25 | 46.59545 | 11.74777 | 35852 ft | 427 kts | 310° |
| 2026-05-06 17:25 | 46.63724 | 11.68694 | 35861 ft | 426 kts | 308° |
| 2026-05-06 17:26 | 46.67788 | 11.62401 | 35860 ft | 425 kts | 307° |
| 2026-05-06 17:26 | 46.71807 | 11.56104 | 35860 ft | 425 kts | 307° |
| 2026-05-06 17:27 | 46.75861 | 11.49809 | 35858 ft | 425 kts | 307° |
| 2026-05-06 17:27 | 46.79924 | 11.43537 | 35863 ft | 426 kts | 308° |
| 2026-05-06 17:28 | 46.83997 | 11.37248 | 35859 ft | 426 kts | 307° |
| 2026-05-06 17:28 | 46.88008 | 11.31001 | 35859 ft | 427 kts | 308° |
| 2026-05-06 17:29 | 46.92090 | 11.24638 | 35846 ft | 427 kts | 307° |
| 2026-05-06 17:29 | 46.96524 | 11.18780 | 35837 ft | 436 kts | 318° |
| 2026-05-06 17:30 | 47.01461 | 11.13596 | 35820 ft | 436 kts | 318° |
| 2026-05-06 17:30 | 47.06394 | 11.08386 | 35816 ft | 437 kts | 318° |
| 2026-05-06 17:31 | 47.11332 | 11.03157 | 35811 ft | 437 kts | 318° |
| 2026-05-06 17:31 | 47.16261 | 10.97922 | 35807 ft | 437 kts | 318° |
| 2026-05-06 17:32 | 47.21191 | 10.92659 | 35817 ft | 438 kts | 318° |
| 2026-05-06 17:32 | 47.24507 | 10.89113 | 35816 ft | 438 kts | 318° |
| 2026-05-06 17:34 | 47.27424 | 10.85325 | 35832 ft | 434 kts | 311° |
| 2026-05-06 17:34 | 47.32286 | 10.79929 | 35839 ft | 441 kts | 321° |
| 2026-05-06 17:35 | 47.37468 | 10.75051 | 35847 ft | 442 kts | 321° |
| 2026-05-06 17:35 | 47.42531 | 10.69940 | 35854 ft | 440 kts | 318° |
| 2026-05-06 17:36 | 47.49901 | 10.61875 | 35862 ft | 440 kts | 317° |
| 2026-05-06 17:36 | 47.54844 | 10.56450 | 35865 ft | 440 kts | 318° |
| 2026-05-06 17:37 | 47.59789 | 10.51094 | 35866 ft | 441 kts | 318° |
| 2026-05-06 17:37 | 47.64743 | 10.45728 | 35868 ft | 442 kts | 318° |
| 2026-05-06 17:38 | 47.69707 | 10.40330 | 35866 ft | 442 kts | 318° |
| 2026-05-06 17:38 | 47.74354 | 10.35236 | 35864 ft | 443 kts | 318° |
| 2026-05-06 17:39 | 47.79187 | 10.29606 | 35863 ft | 441 kts | 315° |
| 2026-05-06 17:39 | 47.83895 | 10.23749 | 35870 ft | 441 kts | 314° |
| 2026-05-06 17:40 | 47.88606 | 10.17880 | 35862 ft | 442 kts | 315° |
| 2026-05-06 17:40 | 47.93383 | 10.12007 | 35863 ft | 442 kts | 315° |
| 2026-05-06 17:41 | 47.98136 | 10.06191 | 35859 ft | 442 kts | 315° |
| 2026-05-06 17:41 | 48.02885 | 10.00363 | 35859 ft | 442 kts | 315° |
| 2026-05-06 17:42 | 48.07626 | 9.94519 | 35856 ft | 442 kts | 315° |
| 2026-05-06 17:42 | 48.12369 | 9.88648 | 35858 ft | 442 kts | 315° |
| 2026-05-06 17:43 | 48.17135 | 9.82736 | 35859 ft | 442 kts | 315° |
| 2026-05-06 17:43 | 48.21868 | 9.76859 | 35863 ft | 442 kts | 316° |
| 2026-05-06 17:44 | 48.26598 | 9.70974 | 35858 ft | 442 kts | 315° |
| 2026-05-06 17:44 | 48.31330 | 9.65065 | 35856 ft | 442 kts | 316° |
| 2026-05-06 17:45 | 48.36061 | 9.59127 | 35851 ft | 442 kts | 315° |
| 2026-05-06 17:45 | 48.39986 | 9.54105 | 35851 ft | 442 kts | 315° |
| 2026-05-06 17:46 | 48.44655 | 9.48086 | 35840 ft | 443 kts | 315° |
| 2026-05-06 17:46 | 48.49342 | 9.42051 | 35838 ft | 443 kts | 315° |
| 2026-05-06 17:47 | 48.54032 | 9.36017 | 35834 ft | 444 kts | 315° |
| 2026-05-06 17:47 | 48.58730 | 9.29953 | 35832 ft | 444 kts | 315° |
| 2026-05-06 17:48 | 48.63855 | 9.24598 | 35831 ft | 451 kts | 331° |
| 2026-05-06 17:48 | 48.69631 | 9.20760 | 35832 ft | 453 kts | 333° |
| 2026-05-06 17:49 | 48.75417 | 9.16951 | 35865 ft | 454 kts | 333° |
| 2026-05-06 17:49 | 48.81205 | 9.13109 | 35852 ft | 454 kts | 333° |
| 2026-05-06 17:50 | 48.86982 | 9.09266 | 35850 ft | 454 kts | 333° |
| 2026-05-06 17:50 | 48.93017 | 9.06020 | 35848 ft | 457 kts | 339° |
| 2026-05-06 17:51 | 48.99054 | 9.03001 | 35842 ft | 457 kts | 339° |
| 2026-05-06 17:51 | 49.05125 | 8.99952 | 35833 ft | 456 kts | 339° |
| 2026-05-06 17:52 | 49.11156 | 8.96911 | 35823 ft | 456 kts | 339° |
| 2026-05-06 17:52 | 49.17178 | 8.93853 | 35823 ft | 456 kts | 339° |
| 2026-05-06 17:53 | 49.23209 | 8.90781 | 35826 ft | 456 kts | 339° |
| 2026-05-06 17:53 | 49.29236 | 8.87709 | 35818 ft | 456 kts | 339° |
| 2026-05-06 17:54 | 49.35255 | 8.84639 | 35816 ft | 456 kts | 339° |
| 2026-05-06 17:54 | 49.41154 | 8.81649 | 35817 ft | 457 kts | 340° |
| 2026-05-06 17:55 | 49.46836 | 8.79081 | 35824 ft | 457 kts | 342° |
| 2026-05-06 17:55 | 49.52989 | 8.76505 | 35822 ft | 457 kts | 342° |
| 2026-05-06 17:56 | 49.59116 | 8.73897 | 35813 ft | 457 kts | 341° |
| 2026-05-06 17:56 | 49.65273 | 8.71187 | 35822 ft | 456 kts | 341° |
| 2026-05-06 17:57 | 49.71348 | 8.68487 | 35818 ft | 456 kts | 341° |
| 2026-05-06 17:57 | 49.77455 | 8.65780 | 35815 ft | 456 kts | 341° |
| 2026-05-06 17:58 | 49.83570 | 8.63066 | 35818 ft | 456 kts | 341° |
| 2026-05-06 17:58 | 49.89652 | 8.60361 | 35818 ft | 456 kts | 341° |
| 2026-05-06 17:59 | 49.95811 | 8.57612 | 35818 ft | 456 kts | 341° |
| 2026-05-06 17:59 | 50.01901 | 8.54887 | 35820 ft | 455 kts | 341° |
| 2026-05-06 18:00 | 50.07963 | 8.52094 | 35821 ft | 454 kts | 339° |
| 2026-05-06 18:00 | 50.13938 | 8.48892 | 35827 ft | 453 kts | 337° |
| 2026-05-06 18:01 | 50.19859 | 8.45544 | 35839 ft | 452 kts | 337° |
| 2026-05-06 18:01 | 50.25817 | 8.42255 | 35838 ft | 452 kts | 338° |
| 2026-05-06 18:02 | 50.31472 | 8.38167 | 35836 ft | 445 kts | 324° |
| 2026-05-06 18:02 | 50.36681 | 8.32975 | 35832 ft | 444 kts | 324° |
| 2026-05-06 18:03 | 50.41884 | 8.27768 | 35678 ft | 444 kts | 324° |
| 2026-05-06 18:03 | 50.44490 | 8.25161 | 35402 ft | 441 kts | 324° |
| 2026-05-06 18:03 | 50.47069 | 8.22581 | 34888 ft | 438 kts | 324° |
| 2026-05-06 18:04 | 50.49620 | 8.20024 | 34373 ft | 436 kts | 324° |
| 2026-05-06 18:04 | 50.52171 | 8.17461 | 33841 ft | 433 kts | 324° |
| 2026-05-06 18:04 | 50.54738 | 8.14879 | 33267 ft | 431 kts | 324° |
| 2026-05-06 18:04 | 50.57248 | 8.12349 | 32758 ft | 426 kts | 324° |
| 2026-05-06 18:05 | 50.59732 | 8.09850 | 32262 ft | 423 kts | 324° |
| 2026-05-06 18:05 | 50.62217 | 8.07344 | 31753 ft | 419 kts | 324° |
| 2026-05-06 18:05 | 50.64641 | 8.04886 | 31261 ft | 416 kts | 324° |
| 2026-05-06 18:05 | 50.67065 | 8.02417 | 30774 ft | 413 kts | 324° |
| 2026-05-06 18:06 | 50.69445 | 7.99988 | 30311 ft | 409 kts | 324° |
| 2026-05-06 18:06 | 50.71834 | 7.97552 | 29845 ft | 406 kts | 325° |
| 2026-05-06 18:06 | 50.74162 | 7.95029 | 29350 ft | 400 kts | 318° |
| 2026-05-06 18:06 | 50.76154 | 7.92032 | 28914 ft | 392 kts | 308° |
| 2026-05-06 18:07 | 50.77790 | 7.88634 | 28489 ft | 385 kts | 303° |
| 2026-05-06 18:07 | 50.79328 | 7.85204 | 28061 ft | 381 kts | 303° |
| 2026-05-06 18:07 | 50.80683 | 7.82189 | 27687 ft | 377 kts | 303° |
| 2026-05-06 18:07 | 50.81909 | 7.79458 | 27362 ft | 374 kts | 303° |
| 2026-05-06 18:08 | 50.83407 | 7.76117 | 26931 ft | 371 kts | 303° |
| 2026-05-06 18:08 | 50.84907 | 7.72769 | 26506 ft | 367 kts | 303° |
| 2026-05-06 18:08 | 50.86356 | 7.69527 | 26088 ft | 364 kts | 303° |
| 2026-05-06 18:08 | 50.87011 | 7.68062 | 25915 ft | 363 kts | 303° |
| 2026-05-06 18:09 | 50.88445 | 7.64846 | 25466 ft | 361 kts | 303° |
| 2026-05-06 18:09 | 50.89526 | 7.62413 | 25135 ft | 358 kts | 303° |
| 2026-05-06 18:09 | 50.91330 | 7.58353 | 24340 ft | 354 kts | 303° |
| 2026-05-06 18:09 | 50.92268 | 7.56244 | 23928 ft | 352 kts | 303° |
| 2026-05-06 18:10 | 50.93672 | 7.53087 | 23289 ft | 348 kts | 303° |
| 2026-05-06 18:10 | 50.95056 | 7.49969 | 22478 ft | 344 kts | 303° |
| 2026-05-06 18:10 | 50.96416 | 7.46892 | 21736 ft | 339 kts | 303° |
| 2026-05-06 18:10 | 50.97756 | 7.43825 | 20998 ft | 335 kts | 301° |
| 2026-05-06 18:11 | 50.98750 | 7.40497 | 20319 ft | 327 kts | 283° |
| 2026-05-06 18:11 | 50.98871 | 7.36958 | 19648 ft | 321 kts | 258° |
| 2026-05-06 18:11 | 50.98016 | 7.33734 | 18966 ft | 318 kts | 234° |
| 2026-05-06 18:11 | 50.96412 | 7.31358 | 18281 ft | 319 kts | 212° |
| 2026-05-06 18:12 | 50.94339 | 7.30106 | 17532 ft | 320 kts | 190° |
| 2026-05-06 18:12 | 50.92122 | 7.30157 | 16799 ft | 321 kts | 168° |
| 2026-05-06 18:12 | 50.90088 | 7.31528 | 16193 ft | 317 kts | 144° |
| 2026-05-06 18:12 | 50.88469 | 7.33752 | 16071 ft | 298 kts | 138° |
| 2026-05-06 18:13 | 50.86961 | 7.35916 | 15715 ft | 289 kts | 139° |
| 2026-05-06 18:13 | 50.85482 | 7.38032 | 15248 ft | 285 kts | 139° |
| 2026-05-06 18:13 | 50.84017 | 7.40128 | 14758 ft | 283 kts | 139° |
| 2026-05-06 18:13 | 50.82563 | 7.42208 | 14279 ft | 281 kts | 139° |
| 2026-05-06 18:14 | 50.81128 | 7.44266 | 13804 ft | 279 kts | 139° |
| 2026-05-06 18:14 | 50.79693 | 7.46323 | 13293 ft | 277 kts | 139° |
| 2026-05-06 18:14 | 50.78263 | 7.48377 | 12917 ft | 276 kts | 139° |
| 2026-05-06 18:14 | 50.76864 | 7.50447 | 12460 ft | 281 kts | 131° |
| 2026-05-06 18:15 | 50.75961 | 7.53188 | 12056 ft | 284 kts | 102° |
| 2026-05-06 18:15 | 50.75948 | 7.56258 | 11715 ft | 282 kts | 75° |
| 2026-05-06 18:15 | 50.76812 | 7.58981 | 11379 ft | 278 kts | 46° |
| 2026-05-06 18:15 | 50.78343 | 7.60757 | 10935 ft | 271 kts | 19° |
| 2026-05-06 18:16 | 50.80162 | 7.61187 | 10419 ft | 264 kts | 350° |
| 2026-05-06 18:16 | 50.81907 | 7.60362 | 9880 ft | 261 kts | 335° |
| 2026-05-06 18:16 | 50.83556 | 7.59208 | 9340 ft | 259 kts | 334° |
| 2026-05-06 18:16 | 50.85175 | 7.58016 | 8809 ft | 256 kts | 333° |
| 2026-05-06 18:17 | 50.86625 | 7.56405 | 8274 ft | 251 kts | 308° |
| 2026-05-06 18:17 | 50.87350 | 7.53938 | 7853 ft | 250 kts | 279° |
| 2026-05-06 18:17 | 50.87180 | 7.51231 | 7483 ft | 252 kts | 249° |
| 2026-05-06 18:17 | 50.86158 | 7.49037 | 7216 ft | 248 kts | 218° |
| 2026-05-06 18:18 | 50.84580 | 7.47918 | 6657 ft | 257 kts | 189° |
| 2026-05-06 18:18 | 50.82740 | 7.47933 | 5923 ft | 272 kts | 175° |
| 2026-05-06 18:18 | 50.80845 | 7.48259 | 5388 ft | 275 kts | 174° |
| 2026-05-06 18:18 | 50.78941 | 7.48583 | 4949 ft | 274 kts | 175° |
| 2026-05-06 18:19 | 50.77054 | 7.48868 | 4605 ft | 270 kts | 174° |
| 2026-05-06 18:19 | 50.75226 | 7.48902 | 4453 ft | 256 kts | 193° |
| 2026-05-06 18:19 | 50.73676 | 7.47750 | 4321 ft | 241 kts | 219° |
| 2026-05-06 18:19 | 50.72390 | 7.46093 | 4043 ft | 236 kts | 223° |
| 2026-05-06 18:20 | 50.71164 | 7.44391 | 3731 ft | 234 kts | 227° |
| 2026-05-06 18:20 | 50.70324 | 7.42271 | 3386 ft | 226 kts | 258° |
| 2026-05-06 18:20 | 50.70259 | 7.39863 | 3093 ft | 218 kts | 286° |
| 2026-05-06 18:20 | 50.70891 | 7.37732 | 3002 ft | 215 kts | 311° |
| 2026-05-06 18:21 | 50.71965 | 7.36077 | 3008 ft | 217 kts | 319° |
| 2026-05-06 18:21 | 50.73087 | 7.34479 | 2999 ft | 217 kts | 319° |
| 2026-05-06 18:21 | 50.74187 | 7.32902 | 3001 ft | 207 kts | 319° |
| 2026-05-06 18:21 | 50.75214 | 7.31425 | 2992 ft | 193 kts | 319° |
| 2026-05-06 18:22 | 50.76186 | 7.30029 | 2838 ft | 187 kts | 319° |
| 2026-05-06 18:22 | 50.77148 | 7.28645 | 2601 ft | 186 kts | 319° |
| 2026-05-06 18:22 | 50.78102 | 7.27273 | 2363 ft | 185 kts | 319° |
| 2026-05-06 18:22 | 50.79049 | 7.25909 | 2122 ft | 182 kts | 319° |
| 2026-05-06 18:23 | 50.79949 | 7.24612 | 1886 ft | 169 kts | 319° |
| 2026-05-06 18:23 | 50.80786 | 7.23403 | 1631 ft | 156 kts | 319° |
| 2026-05-06 18:23 | 50.81547 | 7.22306 | 1414 ft | 143 kts | 319° |
| 2026-05-06 18:23 | 50.82264 | 7.21271 | 1219 ft | 137 kts | 318° |
| 2026-05-06 18:24 | 50.82960 | 7.20268 | 1049 ft | 132 kts | 317° |
| 2026-05-06 18:24 | 50.83632 | 7.19296 | 855 ft | 130 kts | 316° |
| 2026-05-06 18:24 | 50.84287 | 7.18333 | 678 ft | 128 kts | 318° |
| 2026-05-06 18:24 | 50.84947 | 7.17394 | 483 ft | 127 kts | 319° |
| 2026-05-06 18:25 | 50.85601 | 7.16452 | 350 ft | 127 kts | 318° |
| 2026-05-06 18:25 | 50.86204 | 7.15580 | 292 ft | 101 kts | 317° |
| 2026-05-06 18:25 | 50.86593 | 7.15017 | 275 ft | 51 kts | 317° |
| 2026-05-06 18:25 | 50.86786 | 7.14733 | 267 ft | 33 kts | 314° |
| 2026-05-06 18:26 | 50.86878 | 7.14419 | 260 ft | 30 kts | 279° |
| 2026-05-06 18:26 | 50.86899 | 7.14216 | 256 ft | 9 kts | 279° |
| 2026-05-06 18:26 | 50.86907 | 7.14149 | 255 ft | 6 kts | 282° |
| 2026-05-06 18:26 | 50.86949 | 7.14039 | 252 ft | 19 kts | 317° |
| 2026-05-06 18:27 | 50.87062 | 7.13878 | 243 ft | 23 kts | 318° |
| 2026-05-06 18:27 | 50.87177 | 7.13712 | 239 ft | 22 kts | 317° |
| 2026-05-06 18:27 | 50.87290 | 7.13548 | 235 ft | 22 kts | 317° |
| 2026-05-06 18:27 | 50.87400 | 7.13389 | 232 ft | 20 kts | 318° |
| 2026-05-06 18:28 | 50.87499 | 7.13245 | 233 ft | 18 kts | 318° |
| 2026-05-06 18:28 | 50.87589 | 7.13117 | 233 ft | 17 kts | 318° |
| 2026-05-06 18:28 | 50.87668 | 7.12997 | 233 ft | 15 kts | 315° |
| 2026-05-06 18:28 | 50.87741 | 7.12888 | 211 ft | 14 kts | 317° |
| 2026-05-06 18:29 | 50.87789 | 7.12773 | 234 ft | 12 kts | 267° |
| 2026-05-06 18:29 | 50.87798 | 7.12656 | 232 ft | 10 kts | 308° |
| 2026-05-06 18:29 | 50.87857 | 7.12610 | 233 ft | 11 kts | 352° |
| 2026-05-06 18:29 | 50.87929 | 7.12625 | 232 ft | 9 kts | 0° |
| 2026-05-06 18:30 | 50.87996 | 7.12578 | 232 ft | 11 kts | 315° |
| 2026-05-06 18:30 | 50.88036 | 7.12475 | 232 ft | 12 kts | 299° |
| 2026-05-06 18:30 | 50.88087 | 7.12349 | 233 ft | 13 kts | 306° |
| 2026-05-06 18:30 | 50.88133 | 7.12249 | 232 ft | 7 kts | 312° |
| 2026-05-06 18:31 | 50.88172 | 7.12265 | 232 ft | 6 kts | 36° |
| 2026-05-06 18:31 | 50.88193 | 7.12289 | 232 ft | 2 kts | 36° |
| 2026-05-06 18:31 | 50.88204 | 7.12303 | 232 ft | 1 kts | 36° |
| 2026-05-06 18:31 | 50.88208 | 7.12307 | 232 ft | 0 kts | 36° |
| 2026-05-06 18:32 | 50.88210 | 7.12309 | 232 ft | 0 kts | 36° |